Главная страница
METAR-TAF:

METAR-TAF

Аэропорты :

Масджид-Солейман, Иран

широта: 31-59N, долгота: 049-16E, высота над уровнем моря: 372 м

Текущие метеонаблюдения

Эта сводка был подготовлена 25 минут назад, в 17:00 UTC
Ветер 2 Узел от западный-юго-западный
Температура 43°C
Влажность 14%
Давление 995 hPa
Видимость 10 км и более
Нет облачности ниже 1500 м, и нет кучево-дождевой облачности

METAR: OIAI 091700Z 25002KT CAVOK 43/10 Q0995

Время: 21:55 (17:25 UTC)


TAF: отсутствует

Метеонаблюдения и прогнозы для более 4000 аэропортов (сводки METAR и TAF).

Имеющиеся станции представлены на карте желтыми и красными точками.

Чтобы увидеть название станции, наведите на нее мышь.

Затем щелкните, чтобы увидеть метеонаблюдения и метеопрогнозы.

Управление картой: чтобы увеличить масштаб, щелкните зеленые кнопки с черным крестиком; чтобы уменьшить масштаб, щелкните зеленую кнопку с тире; для просмотра соседних карт щелкайте зеленые стрелки.


METAR-TAF: